sensor_id;sensor_type;location;lat;lon;timestamp;P1;durP1;ratioP1;P2;durP2;ratioP2
44228;SDS011;29904;51.058;5.378;2023-09-08T00:01:56;7.05;;;4.80;;
44228;SDS011;29904;51.058;5.378;2023-09-08T00:04:22;6.13;;;4.60;;
44228;SDS011;29904;51.058;5.378;2023-09-08T00:06:48;5.78;;;4.40;;
44228;SDS011;29904;51.058;5.378;2023-09-08T00:09:14;4.60;;;4.10;;
44228;SDS011;29904;51.058;5.378;2023-09-08T00:11:40;5.73;;;4.20;;
44228;SDS011;29904;51.058;5.378;2023-09-08T00:14:06;6.93;;;4.65;;
44228;SDS011;29904;51.058;5.378;2023-09-08T00:16:33;6.37;;;4.87;;
44228;SDS011;29904;51.058;5.378;2023-09-08T00:18:59;5.70;;;4.68;;
44228;SDS011;29904;51.058;5.378;2023-09-08T00:21:25;4.53;;;4.07;;
44228;SDS011;29904;51.058;5.378;2023-09-08T00:23:52;6.20;;;4.18;;
44228;SDS011;29904;51.058;5.378;2023-09-08T00:26:18;7.20;;;4.78;;
44228;SDS011;29904;51.058;5.378;2023-09-08T00:28:44;4.75;;;4.25;;
44228;SDS011;29904;51.058;5.378;2023-09-08T00:31:10;6.00;;;4.32;;
44228;SDS011;29904;51.058;5.378;2023-09-08T00:33:35;5.33;;;4.00;;
44228;SDS011;29904;51.058;5.378;2023-09-08T00:36:02;5.10;;;4.22;;
44228;SDS011;29904;51.058;5.378;2023-09-08T00:38:28;5.28;;;3.90;;
44228;SDS011;29904;51.058;5.378;2023-09-08T00:40:54;6.32;;;4.10;;
44228;SDS011;29904;51.058;5.378;2023-09-08T00:43:20;5.43;;;4.10;;
44228;SDS011;29904;51.058;5.378;2023-09-08T00:45:46;5.22;;;4.40;;
44228;SDS011;29904;51.058;5.378;2023-09-08T00:48:13;6.05;;;4.57;;
44228;SDS011;29904;51.058;5.378;2023-09-08T00:50:39;6.45;;;4.72;;
44228;SDS011;29904;51.058;5.378;2023-09-08T00:53:05;6.07;;;4.60;;
44228;SDS011;29904;51.058;5.378;2023-09-08T00:55:33;5.20;;;4.68;;
44228;SDS011;29904;51.058;5.378;2023-09-08T00:58:00;6.05;;;4.90;;
44228;SDS011;29904;51.058;5.378;2023-09-08T01:00:27;5.53;;;4.55;;
44228;SDS011;29904;51.058;5.378;2023-09-08T01:02:53;5.73;;;4.70;;
44228;SDS011;29904;51.058;5.378;2023-09-08T01:05:19;7.68;;;5.53;;
44228;SDS011;29904;51.058;5.378;2023-09-08T01:07:45;7.22;;;5.50;;
44228;SDS011;29904;51.058;5.378;2023-09-08T01:10:13;6.53;;;5.40;;
44228;SDS011;29904;51.058;5.378;2023-09-08T01:12:40;6.05;;;4.65;;
44228;SDS011;29904;51.058;5.378;2023-09-08T01:15:06;5.68;;;4.10;;
44228;SDS011;29904;51.058;5.378;2023-09-08T01:17:33;6.43;;;4.82;;
44228;SDS011;29904;51.058;5.378;2023-09-08T01:20:02;6.28;;;4.68;;
44228;SDS011;29904;51.058;5.378;2023-09-08T01:22:40;6.40;;;4.37;;
44228;SDS011;29904;51.058;5.378;2023-09-08T01:25:17;5.25;;;4.47;;
44228;SDS011;29904;51.058;5.378;2023-09-08T01:27:53;6.55;;;4.75;;
44228;SDS011;29904;51.058;5.378;2023-09-08T01:30:23;6.45;;;4.70;;
44228;SDS011;29904;51.058;5.378;2023-09-08T01:32:51;5.57;;;4.47;;
44228;SDS011;29904;51.058;5.378;2023-09-08T01:35:19;6.03;;;4.97;;
44228;SDS011;29904;51.058;5.378;2023-09-08T01:37:45;5.25;;;4.05;;
44228;SDS011;29904;51.058;5.378;2023-09-08T01:40:12;4.20;;;3.80;;
44228;SDS011;29904;51.058;5.378;2023-09-08T01:42:38;5.10;;;4.20;;
44228;SDS011;29904;51.058;5.378;2023-09-08T01:45:06;5.05;;;3.92;;
44228;SDS011;29904;51.058;5.378;2023-09-08T01:47:33;5.35;;;3.78;;
44228;SDS011;29904;51.058;5.378;2023-09-08T01:49:59;5.30;;;4.00;;
44228;SDS011;29904;51.058;5.378;2023-09-08T01:52:26;5.25;;;3.80;;
44228;SDS011;29904;51.058;5.378;2023-09-08T01:54:52;5.72;;;4.43;;
44228;SDS011;29904;51.058;5.378;2023-09-08T01:57:18;5.30;;;3.95;;
44228;SDS011;29904;51.058;5.378;2023-09-08T01:59:44;4.75;;;4.10;;
44228;SDS011;29904;51.058;5.378;2023-09-08T02:02:13;4.67;;;3.90;;
44228;SDS011;29904;51.058;5.378;2023-09-08T02:04:38;5.00;;;3.77;;
44228;SDS011;29904;51.058;5.378;2023-09-08T02:07:04;5.30;;;4.50;;
44228;SDS011;29904;51.058;5.378;2023-09-08T02:09:34;5.78;;;4.60;;
44228;SDS011;29904;51.058;5.378;2023-09-08T02:12:01;6.70;;;4.88;;
44228;SDS011;29904;51.058;5.378;2023-09-08T02:14:29;5.30;;;4.23;;
44228;SDS011;29904;51.058;5.378;2023-09-08T02:16:55;4.73;;;4.00;;
44228;SDS011;29904;51.058;5.378;2023-09-08T02:19:22;4.88;;;3.80;;
44228;SDS011;29904;51.058;5.378;2023-09-08T02:21:49;6.68;;;4.35;;
44228;SDS011;29904;51.058;5.378;2023-09-08T02:24:15;5.37;;;4.00;;
44228;SDS011;29904;51.058;5.378;2023-09-08T02:26:41;4.60;;;3.88;;
44228;SDS011;29904;51.058;5.378;2023-09-08T02:29:07;4.78;;;4.20;;
44228;SDS011;29904;51.058;5.378;2023-09-08T02:31:34;7.55;;;4.82;;
44228;SDS011;29904;51.058;5.378;2023-09-08T02:34:00;6.35;;;4.78;;
44228;SDS011;29904;51.058;5.378;2023-09-08T02:36:28;7.33;;;5.20;;
44228;SDS011;29904;51.058;5.378;2023-09-08T02:38:54;6.03;;;4.57;;
44228;SDS011;29904;51.058;5.378;2023-09-08T02:41:21;7.32;;;4.57;;
44228;SDS011;29904;51.058;5.378;2023-09-08T02:43:49;6.07;;;4.28;;
44228;SDS011;29904;51.058;5.378;2023-09-08T02:46:14;6.47;;;4.68;;
44228;SDS011;29904;51.058;5.378;2023-09-08T02:48:40;6.07;;;4.28;;
44228;SDS011;29904;51.058;5.378;2023-09-08T02:51:06;7.28;;;5.13;;
44228;SDS011;29904;51.058;5.378;2023-09-08T02:53:32;6.07;;;4.63;;
44228;SDS011;29904;51.058;5.378;2023-09-08T02:55:58;6.45;;;4.80;;
44228;SDS011;29904;51.058;5.378;2023-09-08T02:58:28;6.93;;;5.50;;
44228;SDS011;29904;51.058;5.378;2023-09-08T03:00:55;6.75;;;5.00;;
44228;SDS011;29904;51.058;5.378;2023-09-08T03:03:21;6.65;;;5.28;;
44228;SDS011;29904;51.058;5.378;2023-09-08T03:05:47;4.90;;;4.15;;
44228;SDS011;29904;51.058;5.378;2023-09-08T03:08:13;6.72;;;4.88;;
44228;SDS011;29904;51.058;5.378;2023-09-08T03:10:39;5.83;;;4.87;;
44228;SDS011;29904;51.058;5.378;2023-09-08T03:13:05;7.50;;;4.85;;
44228;SDS011;29904;51.058;5.378;2023-09-08T03:15:31;5.28;;;4.53;;
44228;SDS011;29904;51.058;5.378;2023-09-08T03:17:57;7.10;;;5.37;;
44228;SDS011;29904;51.058;5.378;2023-09-08T03:20:24;8.55;;;4.68;;
44228;SDS011;29904;51.058;5.378;2023-09-08T03:22:53;6.50;;;4.45;;
44228;SDS011;29904;51.058;5.378;2023-09-08T03:25:19;5.65;;;4.32;;
44228;SDS011;29904;51.058;5.378;2023-09-08T03:27:46;5.30;;;3.90;;
44228;SDS011;29904;51.058;5.378;2023-09-08T03:30:12;5.63;;;4.40;;
44228;SDS011;29904;51.058;5.378;2023-09-08T03:32:38;6.07;;;4.70;;
44228;SDS011;29904;51.058;5.378;2023-09-08T03:35:06;8.52;;;5.10;;
44228;SDS011;29904;51.058;5.378;2023-09-08T03:37:33;7.15;;;5.30;;
44228;SDS011;29904;51.058;5.378;2023-09-08T03:40:00;4.97;;;4.30;;
44228;SDS011;29904;51.058;5.378;2023-09-08T03:42:26;7.67;;;4.73;;
44228;SDS011;29904;51.058;5.378;2023-09-08T03:44:51;4.90;;;4.20;;
44228;SDS011;29904;51.058;5.378;2023-09-08T03:47:19;5.88;;;4.55;;
44228;SDS011;29904;51.058;5.378;2023-09-08T03:49:45;5.87;;;4.67;;
44228;SDS011;29904;51.058;5.378;2023-09-08T03:52:10;6.88;;;4.68;;
44228;SDS011;29904;51.058;5.378;2023-09-08T03:54:38;6.30;;;4.80;;
44228;SDS011;29904;51.058;5.378;2023-09-08T03:57:04;5.67;;;4.50;;
44228;SDS011;29904;51.058;5.378;2023-09-08T03:59:29;6.85;;;4.90;;
44228;SDS011;29904;51.058;5.378;2023-09-08T04:01:59;6.07;;;4.70;;
44228;SDS011;29904;51.058;5.378;2023-09-08T04:04:26;8.13;;;5.65;;
44228;SDS011;29904;51.058;5.378;2023-09-08T04:06:51;8.32;;;6.03;;
44228;SDS011;29904;51.058;5.378;2023-09-08T04:09:19;8.20;;;5.90;;
44228;SDS011;29904;51.058;5.378;2023-09-08T04:11:45;5.88;;;5.15;;
44228;SDS011;29904;51.058;5.378;2023-09-08T04:14:11;5.93;;;4.78;;
44228;SDS011;29904;51.058;5.378;2023-09-08T04:16:39;7.70;;;5.68;;
44228;SDS011;29904;51.058;5.378;2023-09-08T04:19:04;7.10;;;5.20;;
44228;SDS011;29904;51.058;5.378;2023-09-08T04:21:30;8.65;;;5.88;;
44228;SDS011;29904;51.058;5.378;2023-09-08T04:23:58;6.53;;;5.18;;
44228;SDS011;29904;51.058;5.378;2023-09-08T04:26:23;7.10;;;5.70;;
44228;SDS011;29904;51.058;5.378;2023-09-08T04:28:49;6.68;;;5.00;;
44228;SDS011;29904;51.058;5.378;2023-09-08T04:31:15;6.00;;;4.75;;
44228;SDS011;29904;51.058;5.378;2023-09-08T04:33:43;5.90;;;4.68;;
44228;SDS011;29904;51.058;5.378;2023-09-08T04:36:09;6.60;;;5.40;;
44228;SDS011;29904;51.058;5.378;2023-09-08T04:38:36;7.43;;;4.97;;
44228;SDS011;29904;51.058;5.378;2023-09-08T04:41:01;6.55;;;4.70;;
44228;SDS011;29904;51.058;5.378;2023-09-08T04:43:27;7.27;;;5.20;;
44228;SDS011;29904;51.058;5.378;2023-09-08T04:45:53;6.37;;;5.23;;
44228;SDS011;29904;51.058;5.378;2023-09-08T04:48:19;7.13;;;5.68;;
44228;SDS011;29904;51.058;5.378;2023-09-08T04:50:44;6.40;;;5.40;;
44228;SDS011;29904;51.058;5.378;2023-09-08T04:53:10;6.70;;;5.18;;
44228;SDS011;29904;51.058;5.378;2023-09-08T04:55:35;6.10;;;5.13;;
44228;SDS011;29904;51.058;5.378;2023-09-08T04:58:01;6.93;;;5.77;;
44228;SDS011;29904;51.058;5.378;2023-09-08T05:00:31;6.88;;;5.38;;
44228;SDS011;29904;51.058;5.378;2023-09-08T05:03:01;8.35;;;5.30;;
44228;SDS011;29904;51.058;5.378;2023-09-08T05:05:27;6.88;;;5.22;;
44228;SDS011;29904;51.058;5.378;2023-09-08T05:07:52;5.73;;;4.97;;
44228;SDS011;29904;51.058;5.378;2023-09-08T05:10:21;5.90;;;4.80;;
44228;SDS011;29904;51.058;5.378;2023-09-08T05:12:50;7.00;;;5.43;;
44228;SDS011;29904;51.058;5.378;2023-09-08T05:15:16;7.25;;;5.82;;
44228;SDS011;29904;51.058;5.378;2023-09-08T05:17:45;6.93;;;4.90;;
44228;SDS011;29904;51.058;5.378;2023-09-08T05:20:11;6.73;;;5.40;;
44228;SDS011;29904;51.058;5.378;2023-09-08T05:22:37;6.65;;;5.10;;
44228;SDS011;29904;51.058;5.378;2023-09-08T05:25:03;6.55;;;5.30;;
44228;SDS011;29904;51.058;5.378;2023-09-08T05:27:31;7.93;;;5.63;;
44228;SDS011;29904;51.058;5.378;2023-09-08T05:29:57;7.07;;;5.38;;
44228;SDS011;29904;51.058;5.378;2023-09-08T05:32:23;5.97;;;5.20;;
44228;SDS011;29904;51.058;5.378;2023-09-08T05:34:51;7.05;;;5.15;;
44228;SDS011;29904;51.058;5.378;2023-09-08T05:37:17;8.30;;;5.53;;
44228;SDS011;29904;51.058;5.378;2023-09-08T05:39:43;7.30;;;6.40;;
44228;SDS011;29904;51.058;5.378;2023-09-08T05:42:08;9.25;;;5.93;;
44228;SDS011;29904;51.058;5.378;2023-09-08T05:44:34;9.02;;;6.90;;
44228;SDS011;29904;51.058;5.378;2023-09-08T05:47:00;8.77;;;6.30;;
44228;SDS011;29904;51.058;5.378;2023-09-08T05:49:28;6.65;;;5.18;;
44228;SDS011;29904;51.058;5.378;2023-09-08T05:51:53;6.45;;;4.85;;
44228;SDS011;29904;51.058;5.378;2023-09-08T05:54:19;6.63;;;5.13;;
44228;SDS011;29904;51.058;5.378;2023-09-08T05:56:45;7.43;;;5.30;;
44228;SDS011;29904;51.058;5.378;2023-09-08T05:59:11;7.47;;;5.47;;
44228;SDS011;29904;51.058;5.378;2023-09-08T06:01:36;7.07;;;5.20;;
44228;SDS011;29904;51.058;5.378;2023-09-08T06:04:02;5.15;;;4.30;;
44228;SDS011;29904;51.058;5.378;2023-09-08T06:06:28;7.95;;;5.22;;
44228;SDS011;29904;51.058;5.378;2023-09-08T06:08:54;6.47;;;4.40;;
44228;SDS011;29904;51.058;5.378;2023-09-08T06:11:23;7.82;;;5.57;;
44228;SDS011;29904;51.058;5.378;2023-09-08T06:13:51;7.30;;;5.33;;
44228;SDS011;29904;51.058;5.378;2023-09-08T06:16:19;7.35;;;5.20;;
44228;SDS011;29904;51.058;5.378;2023-09-08T06:18:45;6.97;;;5.50;;
44228;SDS011;29904;51.058;5.378;2023-09-08T06:21:11;6.50;;;5.40;;
44228;SDS011;29904;51.058;5.378;2023-09-08T06:23:37;8.35;;;5.47;;
44228;SDS011;29904;51.058;5.378;2023-09-08T06:26:02;7.18;;;4.95;;
44228;SDS011;29904;51.058;5.378;2023-09-08T06:28:28;5.53;;;4.93;;
44228;SDS011;29904;51.058;5.378;2023-09-08T06:30:54;6.45;;;5.13;;
44228;SDS011;29904;51.058;5.378;2023-09-08T06:33:20;9.00;;;5.50;;
44228;SDS011;29904;51.058;5.378;2023-09-08T06:35:47;6.72;;;5.20;;
44228;SDS011;29904;51.058;5.378;2023-09-08T06:38:13;7.07;;;5.40;;
44228;SDS011;29904;51.058;5.378;2023-09-08T06:40:39;8.43;;;5.90;;
44228;SDS011;29904;51.058;5.378;2023-09-08T06:43:06;6.83;;;5.57;;
44228;SDS011;29904;51.058;5.378;2023-09-08T06:45:32;5.97;;;4.85;;
44228;SDS011;29904;51.058;5.378;2023-09-08T06:47:58;6.40;;;4.97;;
44228;SDS011;29904;51.058;5.378;2023-09-08T06:50:26;7.38;;;5.35;;
44228;SDS011;29904;51.058;5.378;2023-09-08T06:52:52;6.50;;;5.00;;
44228;SDS011;29904;51.058;5.378;2023-09-08T06:55:18;6.85;;;5.13;;
44228;SDS011;29904;51.058;5.378;2023-09-08T06:57:46;8.20;;;5.43;;
44228;SDS011;29904;51.058;5.378;2023-09-08T07:00:12;5.93;;;4.85;;
44228;SDS011;29904;51.058;5.378;2023-09-08T07:02:41;9.30;;;5.75;;
44228;SDS011;29904;51.058;5.378;2023-09-08T07:05:07;7.00;;;5.07;;
44228;SDS011;29904;51.058;5.378;2023-09-08T07:07:36;8.80;;;5.18;;
44228;SDS011;29904;51.058;5.378;2023-09-08T07:10:03;6.70;;;4.80;;
44228;SDS011;29904;51.058;5.378;2023-09-08T07:12:29;6.00;;;4.72;;
44228;SDS011;29904;51.058;5.378;2023-09-08T07:14:57;7.80;;;5.20;;
44228;SDS011;29904;51.058;5.378;2023-09-08T07:17:24;5.57;;;4.55;;
44228;SDS011;29904;51.058;5.378;2023-09-08T07:19:50;7.27;;;4.70;;
44228;SDS011;29904;51.058;5.378;2023-09-08T07:22:16;7.10;;;4.83;;
44228;SDS011;29904;51.058;5.378;2023-09-08T07:24:42;8.15;;;5.00;;
44228;SDS011;29904;51.058;5.378;2023-09-08T07:27:09;8.35;;;5.03;;
44228;SDS011;29904;51.058;5.378;2023-09-08T07:29:39;7.43;;;4.90;;
44228;SDS011;29904;51.058;5.378;2023-09-08T07:32:06;5.97;;;4.75;;
44228;SDS011;29904;51.058;5.378;2023-09-08T07:34:32;6.00;;;4.20;;
44228;SDS011;29904;51.058;5.378;2023-09-08T07:36:58;9.50;;;4.70;;
44228;SDS011;29904;51.058;5.378;2023-09-08T07:39:25;5.10;;;4.18;;
44228;SDS011;29904;51.058;5.378;2023-09-08T07:41:50;8.63;;;4.60;;
44228;SDS011;29904;51.058;5.378;2023-09-08T07:44:17;6.35;;;4.57;;
44228;SDS011;29904;51.058;5.378;2023-09-08T07:46:43;6.95;;;4.55;;
44228;SDS011;29904;51.058;5.378;2023-09-08T07:49:11;6.57;;;4.17;;
44228;SDS011;29904;51.058;5.378;2023-09-08T07:51:39;4.95;;;4.00;;
44228;SDS011;29904;51.058;5.378;2023-09-08T07:54:05;5.03;;;3.77;;
44228;SDS011;29904;51.058;5.378;2023-09-08T07:56:31;4.70;;;3.20;;
44228;SDS011;29904;51.058;5.378;2023-09-08T07:58:59;5.25;;;3.60;;
44228;SDS011;29904;51.058;5.378;2023-09-08T08:01:25;4.70;;;3.73;;
44228;SDS011;29904;51.058;5.378;2023-09-08T08:03:50;6.95;;;3.42;;
44228;SDS011;29904;51.058;5.378;2023-09-08T08:06:18;4.97;;;3.22;;
44228;SDS011;29904;51.058;5.378;2023-09-08T08:08:44;5.75;;;3.70;;
44228;SDS011;29904;51.058;5.378;2023-09-08T08:11:10;4.37;;;3.50;;
44228;SDS011;29904;51.058;5.378;2023-09-08T08:13:40;4.90;;;3.65;;
44228;SDS011;29904;51.058;5.378;2023-09-08T08:16:06;5.03;;;3.78;;
44228;SDS011;29904;51.058;5.378;2023-09-08T08:18:32;4.35;;;3.63;;
44228;SDS011;29904;51.058;5.378;2023-09-08T08:21:00;4.63;;;3.40;;
44228;SDS011;29904;51.058;5.378;2023-09-08T08:23:28;6.05;;;3.58;;
44228;SDS011;29904;51.058;5.378;2023-09-08T08:25:54;6.07;;;3.80;;
44228;SDS011;29904;51.058;5.378;2023-09-08T08:28:20;6.15;;;3.70;;
44228;SDS011;29904;51.058;5.378;2023-09-08T08:30:46;6.95;;;3.85;;
44228;SDS011;29904;51.058;5.378;2023-09-08T08:33:12;5.17;;;3.70;;
44228;SDS011;29904;51.058;5.378;2023-09-08T08:35:38;4.97;;;3.60;;
44228;SDS011;29904;51.058;5.378;2023-09-08T08:38:06;4.90;;;3.92;;
44228;SDS011;29904;51.058;5.378;2023-09-08T08:40:34;6.25;;;3.97;;
44228;SDS011;29904;51.058;5.378;2023-09-08T08:43:03;4.07;;;3.20;;
44228;SDS011;29904;51.058;5.378;2023-09-08T08:45:29;5.40;;;3.50;;
44228;SDS011;29904;51.058;5.378;2023-09-08T08:47:57;6.40;;;3.72;;
44228;SDS011;29904;51.058;5.378;2023-09-08T08:50:24;4.80;;;3.38;;
44228;SDS011;29904;51.058;5.378;2023-09-08T08:52:49;5.45;;;3.65;;
44228;SDS011;29904;51.058;5.378;2023-09-08T08:55:16;5.60;;;3.80;;
44228;SDS011;29904;51.058;5.378;2023-09-08T08:57:42;7.15;;;4.03;;
44228;SDS011;29904;51.058;5.378;2023-09-08T09:00:09;5.53;;;3.55;;
44228;SDS011;29904;51.058;5.378;2023-09-08T09:02:41;4.65;;;3.70;;
44228;SDS011;29904;51.058;5.378;2023-09-08T09:05:11;6.03;;;3.95;;
44228;SDS011;29904;51.058;5.378;2023-09-08T09:07:42;6.07;;;4.00;;
44228;SDS011;29904;51.058;5.378;2023-09-08T09:10:08;4.85;;;3.67;;
44228;SDS011;29904;51.058;5.378;2023-09-08T09:12:37;7.40;;;4.03;;
44228;SDS011;29904;51.058;5.378;2023-09-08T09:15:03;6.90;;;4.00;;
44228;SDS011;29904;51.058;5.378;2023-09-08T09:17:33;6.22;;;3.63;;
44228;SDS011;29904;51.058;5.378;2023-09-08T09:20:15;5.55;;;4.18;;
44228;SDS011;29904;51.058;5.378;2023-09-08T09:22:43;5.55;;;3.72;;
44228;SDS011;29904;51.058;5.378;2023-09-08T09:25:09;5.20;;;3.80;;
44228;SDS011;29904;51.058;5.378;2023-09-08T09:27:50;6.57;;;4.32;;
44228;SDS011;29904;51.058;5.378;2023-09-08T09:30:16;5.53;;;3.80;;
44228;SDS011;29904;51.058;5.378;2023-09-08T09:32:43;5.20;;;3.88;;
44228;SDS011;29904;51.058;5.378;2023-09-08T09:35:09;4.50;;;3.47;;
44228;SDS011;29904;51.058;5.378;2023-09-08T09:37:35;5.78;;;3.83;;
44228;SDS011;29904;51.058;5.378;2023-09-08T09:40:03;5.28;;;3.67;;
44228;SDS011;29904;51.058;5.378;2023-09-08T09:42:32;5.22;;;3.90;;
44228;SDS011;29904;51.058;5.378;2023-09-08T09:45:02;4.88;;;3.45;;
44228;SDS011;29904;51.058;5.378;2023-09-08T09:47:29;6.40;;;3.90;;
44228;SDS011;29904;51.058;5.378;2023-09-08T09:49:55;5.68;;;3.50;;
44228;SDS011;29904;51.058;5.378;2023-09-08T09:52:23;6.77;;;3.80;;
44228;SDS011;29904;51.058;5.378;2023-09-08T09:54:52;5.03;;;3.55;;
44228;SDS011;29904;51.058;5.378;2023-09-08T09:57:20;4.93;;;3.60;;
44228;SDS011;29904;51.058;5.378;2023-09-08T09:59:47;6.18;;;3.50;;
44228;SDS011;29904;51.058;5.378;2023-09-08T10:02:16;4.97;;;3.80;;
44228;SDS011;29904;51.058;5.378;2023-09-08T10:04:47;6.55;;;3.67;;
44228;SDS011;29904;51.058;5.378;2023-09-08T10:07:17;5.30;;;3.60;;
44228;SDS011;29904;51.058;5.378;2023-09-08T10:09:43;5.78;;;3.70;;
44228;SDS011;29904;51.058;5.378;2023-09-08T10:12:09;6.03;;;3.20;;
44228;SDS011;29904;51.058;5.378;2023-09-08T10:14:39;7.82;;;3.55;;
44228;SDS011;29904;51.058;5.378;2023-09-08T10:17:08;6.10;;;3.35;;
44228;SDS011;29904;51.058;5.378;2023-09-08T10:19:50;5.07;;;3.55;;
44228;SDS011;29904;51.058;5.378;2023-09-08T10:22:19;4.13;;;3.50;;
44228;SDS011;29904;51.058;5.378;2023-09-08T10:24:46;4.83;;;2.93;;
44228;SDS011;29904;51.058;5.378;2023-09-08T10:27:15;4.05;;;3.13;;
44228;SDS011;29904;51.058;5.378;2023-09-08T10:29:44;4.25;;;3.40;;
44228;SDS011;29904;51.058;5.378;2023-09-08T10:32:12;4.57;;;3.37;;
44228;SDS011;29904;51.058;5.378;2023-09-08T10:34:39;4.57;;;3.33;;
44228;SDS011;29904;51.058;5.378;2023-09-08T10:39:50;5.10;;;3.67;;
44228;SDS011;29904;51.058;5.378;2023-09-08T10:44:43;5.40;;;3.50;;
44228;SDS011;29904;51.058;5.378;2023-09-08T10:47:12;6.18;;;3.58;;
44228;SDS011;29904;51.058;5.378;2023-09-08T10:49:38;6.50;;;3.30;;
44228;SDS011;29904;51.058;5.378;2023-09-08T10:52:09;5.90;;;3.63;;
44228;SDS011;29904;51.058;5.378;2023-09-08T10:54:43;4.45;;;3.17;;
44228;SDS011;29904;51.058;5.378;2023-09-08T10:57:20;4.10;;;3.17;;
44228;SDS011;29904;51.058;5.378;2023-09-08T10:59:54;4.75;;;3.30;;
44228;SDS011;29904;51.058;5.378;2023-09-08T11:02:36;4.90;;;3.20;;
44228;SDS011;29904;51.058;5.378;2023-09-08T11:05:08;4.68;;;3.10;;
44228;SDS011;29904;51.058;5.378;2023-09-08T11:07:37;6.00;;;3.00;;
44228;SDS011;29904;51.058;5.378;2023-09-08T11:10:04;5.03;;;3.25;;
44228;SDS011;29904;51.058;5.378;2023-09-08T11:12:31;7.00;;;3.40;;
44228;SDS011;29904;51.058;5.378;2023-09-08T11:15:02;6.25;;;3.20;;
44228;SDS011;29904;51.058;5.378;2023-09-08T11:17:30;5.97;;;2.80;;
44228;SDS011;29904;51.058;5.378;2023-09-08T11:19:59;3.22;;;2.60;;
44228;SDS011;29904;51.058;5.378;2023-09-08T11:22:26;4.32;;;2.58;;
44228;SDS011;29904;51.058;5.378;2023-09-08T11:25:01;5.15;;;3.08;;
44228;SDS011;29904;51.058;5.378;2023-09-08T11:27:30;3.70;;;2.83;;
44228;SDS011;29904;51.058;5.378;2023-09-08T11:29:56;4.50;;;3.00;;
44228;SDS011;29904;51.058;5.378;2023-09-08T11:32:22;5.60;;;2.97;;
44228;SDS011;29904;51.058;5.378;2023-09-08T11:34:49;4.75;;;3.38;;
44228;SDS011;29904;51.058;5.378;2023-09-08T11:37:15;3.80;;;2.73;;
44228;SDS011;29904;51.058;5.378;2023-09-08T11:39:43;5.88;;;3.00;;
44228;SDS011;29904;51.058;5.378;2023-09-08T11:42:11;5.72;;;2.92;;
44228;SDS011;29904;51.058;5.378;2023-09-08T11:44:40;4.70;;;3.10;;
44228;SDS011;29904;51.058;5.378;2023-09-08T11:47:07;4.18;;;3.05;;
44228;SDS011;29904;51.058;5.378;2023-09-08T11:49:37;5.20;;;2.85;;
44228;SDS011;29904;51.058;5.378;2023-09-08T11:52:09;5.70;;;3.10;;
44228;SDS011;29904;51.058;5.378;2023-09-08T11:54:35;4.25;;;2.92;;
44228;SDS011;29904;51.058;5.378;2023-09-08T11:57:04;4.53;;;3.13;;
44228;SDS011;29904;51.058;5.378;2023-09-08T11:59:31;4.22;;;3.50;;
44228;SDS011;29904;51.058;5.378;2023-09-08T12:01:58;5.70;;;3.00;;
44228;SDS011;29904;51.058;5.378;2023-09-08T12:04:24;6.50;;;3.40;;
44228;SDS011;29904;51.058;5.378;2023-09-08T12:06:54;4.38;;;3.17;;
44228;SDS011;29904;51.058;5.378;2023-09-08T12:09:23;5.28;;;3.38;;
44228;SDS011;29904;51.058;5.378;2023-09-08T12:11:50;6.45;;;3.33;;
44228;SDS011;29904;51.058;5.378;2023-09-08T12:14:16;5.50;;;3.20;;
44228;SDS011;29904;51.058;5.378;2023-09-08T12:16:42;6.03;;;3.20;;
44228;SDS011;29904;51.058;5.378;2023-09-08T12:19:29;7.45;;;3.42;;
44228;SDS011;29904;51.058;5.378;2023-09-08T12:22:02;3.60;;;3.00;;
44228;SDS011;29904;51.058;5.378;2023-09-08T12:27:35;4.50;;;3.45;;
44228;SDS011;29904;51.058;5.378;2023-09-08T12:30:02;7.33;;;3.43;;
44228;SDS011;29904;51.058;5.378;2023-09-08T12:32:30;6.47;;;3.13;;
44228;SDS011;29904;51.058;5.378;2023-09-08T12:34:56;4.03;;;3.10;;
44228;SDS011;29904;51.058;5.378;2023-09-08T12:37:24;4.95;;;3.25;;
44228;SDS011;29904;51.058;5.378;2023-09-08T12:39:52;5.47;;;2.85;;
44228;SDS011;29904;51.058;5.378;2023-09-08T12:42:18;4.82;;;2.90;;
44228;SDS011;29904;51.058;5.378;2023-09-08T12:44:50;5.55;;;3.13;;
44228;SDS011;29904;51.058;5.378;2023-09-08T12:47:17;3.80;;;3.00;;
44228;SDS011;29904;51.058;5.378;2023-09-08T12:49:42;5.50;;;3.05;;
44228;SDS011;29904;51.058;5.378;2023-09-08T12:52:12;3.78;;;2.97;;
44228;SDS011;29904;51.058;5.378;2023-09-08T12:54:38;4.07;;;2.80;;
44228;SDS011;29904;51.058;5.378;2023-09-08T12:57:04;4.68;;;3.20;;
44228;SDS011;29904;51.058;5.378;2023-09-08T12:59:32;3.90;;;3.00;;
44228;SDS011;29904;51.058;5.378;2023-09-08T13:01:57;4.53;;;3.13;;
44228;SDS011;29904;51.058;5.378;2023-09-08T13:04:23;6.43;;;3.30;;
44228;SDS011;29904;51.058;5.378;2023-09-08T13:06:49;4.90;;;3.25;;
44228;SDS011;29904;51.058;5.378;2023-09-08T13:09:16;4.47;;;3.10;;
44228;SDS011;29904;51.058;5.378;2023-09-08T13:11:42;4.53;;;3.03;;
44228;SDS011;29904;51.058;5.378;2023-09-08T13:14:08;6.00;;;3.30;;
44228;SDS011;29904;51.058;5.378;2023-09-08T13:16:33;4.18;;;3.08;;
44228;SDS011;29904;51.058;5.378;2023-09-08T13:18:59;4.82;;;3.42;;
44228;SDS011;29904;51.058;5.378;2023-09-08T13:21:25;5.35;;;3.08;;
44228;SDS011;29904;51.058;5.378;2023-09-08T13:23:51;7.57;;;3.20;;
44228;SDS011;29904;51.058;5.378;2023-09-08T13:26:17;4.70;;;2.93;;
44228;SDS011;29904;51.058;5.378;2023-09-08T13:28:42;4.53;;;2.70;;
44228;SDS011;29904;51.058;5.378;2023-09-08T13:31:08;4.00;;;2.80;;
44228;SDS011;29904;51.058;5.378;2023-09-08T13:33:36;6.00;;;2.50;;
44228;SDS011;29904;51.058;5.378;2023-09-08T13:36:01;4.20;;;2.58;;
44228;SDS011;29904;51.058;5.378;2023-09-08T13:38:27;3.42;;;2.40;;
44228;SDS011;29904;51.058;5.378;2023-09-08T13:40:56;3.22;;;2.50;;
44228;SDS011;29904;51.058;5.378;2023-09-08T13:43:22;3.75;;;2.30;;
44228;SDS011;29904;51.058;5.378;2023-09-08T13:45:48;4.05;;;2.40;;
44228;SDS011;29904;51.058;5.378;2023-09-08T13:48:13;4.93;;;2.37;;
44228;SDS011;29904;51.058;5.378;2023-09-08T13:50:41;4.20;;;2.37;;
44228;SDS011;29904;51.058;5.378;2023-09-08T13:53:07;6.20;;;2.75;;
44228;SDS011;29904;51.058;5.378;2023-09-08T13:55:33;3.95;;;2.50;;
44228;SDS011;29904;51.058;5.378;2023-09-08T13:57:58;4.22;;;2.58;;
44228;SDS011;29904;51.058;5.378;2023-09-08T14:00:24;5.22;;;2.50;;
44228;SDS011;29904;51.058;5.378;2023-09-08T14:02:50;3.10;;;2.30;;
44228;SDS011;29904;51.058;5.378;2023-09-08T14:05:15;4.50;;;2.60;;
44228;SDS011;29904;51.058;5.378;2023-09-08T14:07:41;4.03;;;2.23;;
44228;SDS011;29904;51.058;5.378;2023-09-08T14:10:07;4.38;;;2.30;;
44228;SDS011;29904;51.058;5.378;2023-09-08T14:12:35;4.00;;;2.53;;
44228;SDS011;29904;51.058;5.378;2023-09-08T14:15:00;6.25;;;2.90;;
44228;SDS011;29904;51.058;5.378;2023-09-08T14:17:27;5.25;;;2.95;;
44228;SDS011;29904;51.058;5.378;2023-09-08T14:19:54;5.00;;;2.60;;
44228;SDS011;29904;51.058;5.378;2023-09-08T14:22:20;3.60;;;2.63;;
44228;SDS011;29904;51.058;5.378;2023-09-08T14:24:46;5.63;;;2.90;;
44228;SDS011;29904;51.058;5.378;2023-09-08T14:27:12;4.10;;;2.50;;
44228;SDS011;29904;51.058;5.378;2023-09-08T14:29:37;5.47;;;2.70;;
44228;SDS011;29904;51.058;5.378;2023-09-08T14:32:03;3.70;;;2.65;;
44228;SDS011;29904;51.058;5.378;2023-09-08T14:34:29;4.35;;;2.88;;
44228;SDS011;29904;51.058;5.378;2023-09-08T14:36:57;3.05;;;2.60;;
44228;SDS011;29904;51.058;5.378;2023-09-08T14:39:23;4.75;;;2.80;;
44228;SDS011;29904;51.058;5.378;2023-09-08T14:41:48;4.72;;;2.47;;
44228;SDS011;29904;51.058;5.378;2023-09-08T14:44:18;3.45;;;2.28;;
44228;SDS011;29904;51.058;5.378;2023-09-08T14:46:46;4.45;;;2.50;;
44228;SDS011;29904;51.058;5.378;2023-09-08T14:49:11;4.57;;;2.43;;
44228;SDS011;29904;51.058;5.378;2023-09-08T14:51:40;5.07;;;2.80;;
44228;SDS011;29904;51.058;5.378;2023-09-08T14:54:06;4.22;;;2.60;;
44228;SDS011;29904;51.058;5.378;2023-09-08T14:56:31;3.83;;;2.90;;